logo
App data

Escape From Nazi Labs

Escape From Nazi Labs is a rogue-like old-school arcade game with a random level generator and cumulative power- ups, art and sprites based on the golden age of arcade games with many references to all sci- fi universe , comic books and classic arcade games with dark theme focused on Nazi secrets and legends.
Store | Hub | SteamDB | Site
Developer: Manic Mind Game Lab Publisher: Publisher: Manic Mind Game Lab
Genre: Action, Indie, RPG
Languages: English
Tags: Action (22), Indie (21), RPG (21), Retro (11), Procedural Generation (11), Perma Death (11), Difficult (10), Rogue-like (8)
Category: Single-player, Steam Achievements, Full controller support, Steam Trading Cards, Steam Cloud
Release date: Nov 8, 2016
Price: $4.99
Owners: 20,000 .. 50,000
Followers: 338
Peak concurrent players yesterday: 3
Playtime in the last 2 weeks: 03:58 (average) 04:16 (median)
Playtime total: 03:47 (average) 04:05 (median)

Steam Spy is still in beta, so expect major bugs.

Owners data:

Access restricted.

This feature is only available to users with special access rights. Sorry.

If you want to proceed, you need to register or log in first and then back Steam Spy on Patreon. Look for Indie or Pro pledge.

Don't forget to use the same email as on Steam Spy!

Audience in 2 weeks:

Access restricted.

This feature is only available to users with special access rights. Sorry.

If you want to proceed, you need to register or log in first and then back Steam Spy on Patreon. Look for Indie or Pro pledge.

Don't forget to use the same email as on Steam Spy!

Peak daily concurrent players:

CCU data courtesy of SteamDB. Used with permission.

Hourly concurrent players:

YouTube:

The views data is based on top 50 videos uploaded last week. Actual number of views might be more than the number shown.

The displayed number of videos uploaded yesterday is limited to 50, so if there were more videos uploaded, the number will still show 50.

If the game has commonly used word as its name (like "FEAR" or "Volume") its number of Youtube views might be wrong.

Games similar to this one:

# Game Release date
Price
Score rank
(Userscore / Metascore)
Owners
Players
Playtime (Median)
1 Reverse x Reverse Dec 10, 2015 $9.99N/A (N/A)0 .. 20,0000%00:00 (00:00)
2 Umihara Kawase Nov 2, 2015 $9.9999% (98%)0 .. 20,0000%00:00 (00:00)
3 Strania - The Stella Machina - Nov 24, 2015 $14.99N/A (N/A)0 .. 20,0000%00:00 (00:00)
4 The Dishwasher: Vampire Smile May 12, 2017 $9.9995% (96%)0 .. 20,0000%00:00 (00:00)
5 Hide & Spook: The Haunted Alchemist Oct 28, 2016 FreeN/A (N/A)0 .. 20,0000%00:00 (00:00)
6 JUJU Dec 10, 2014 $19.9993% (95%/65%)0 .. 20,0000%00:00 (00:00)
7 A-10 VR Apr 5, 2016 $4.9993% (95%)0 .. 20,0000%00:00 (00:00)
8 Requiem: Avenging Angel Jul 7, 2016 $9.99N/A (N/A)0 .. 20,0000%00:00 (00:00)
9 Bio Menace Aug 3, 1993 N/AN/A (N/A)0 .. 20,0000%00:00 (00:00)
10 Disney G-Force Jul 21, 2009 $19.9990% (94%/61%)0 .. 20,0000%00:00 (00:00)
11 Guns, Gore & Cannoli Apr 30, 2015 $9.9987% (93%/74%)50,000 .. 100,0000%00:00 (00:00)
12 Immortal Redneck Apr 25, 2017 $19.9587% (93%/70%)20,000 .. 50,0007.69%00:24 (00:16)
13 NotCoD May 19, 2016 $4.9987% (93%)0 .. 20,0000%00:00 (00:00)
14 Charlie Murder May 12, 2017 $9.9987% (93%)0 .. 20,0000%00:00 (00:00)
15 A Rose in the Twilight / ロゼと黄昏の古城 Apr 11, 2017 $19.9983% (92%)0 .. 20,0000%00:00 (00:00)
16 Tokyo Babel Mar 31, 2016 $34.9983% (92%)0 .. 20,0000%00:00 (00:00)
17 Wish Project Mar 22, 2016 $1.99N/A (N/A)0 .. 20,0000%00:00 (00:00)
18 Terminal Velocity May 1, 1995 $6.99N/A (N/A)20,000 .. 50,0000%00:00 (00:00)
19 Hyphen Feb 12, 2015 $3.99N/A (N/A)0 .. 20,0000%00:00 (00:00)
20 A Lenda do Herói - O Herói desta Canção Apr 24, 2017 $15.9976% (90%)20,000 .. 50,00014.29%00:19 (00:06)
21 Mayhem Triple Sep 4, 2015 $4.99N/A (N/A)0 .. 20,0000%00:00 (00:00)
22 THE WALL 墙 Jun 8, 2017 $1.9976% (90%)0 .. 20,0000%00:00 (00:00)
23 Xmas Shooting - Scramble!! Dec 16, 2016 $4.9973% (89%)0 .. 20,0000%00:00 (00:00)
24 Word Rescue May 1, 1992 $4.99N/A (N/A)0 .. 20,0000%00:00 (00:00)
25 Mystik Belle May 15, 2015 $14.9970% (88%)0 .. 20,0000%00:00 (00:00)
26 Twisted Arrow Mar 28, 2017 $19.9970% (88%)0 .. 20,0000%00:00 (00:00)
27 SPINGUN Nov 11, 2016 $1.9968% (87%)0 .. 20,0000%00:00 (00:00)
28 Color Guardians May 12, 2015 $14.99N/A (N/A)0 .. 20,0000%00:00 (00:00)
29 Neighborhorde Jun 5, 2017 $4.99N/A (N/A)0 .. 20,0000%00:00 (00:00)
30 Rocket Fist May 12, 2016 $4.9965% (86%)0 .. 20,0000%00:00 (00:00)
31 Disney Princess: My Fairytale Adventure May 25, 2012 $19.9965% (86%)0 .. 20,0000%00:00 (00:00)
32 Disney's Chicken Little Oct 20, 2005 $9.9965% (86%)0 .. 20,0000%00:00 (00:00)
33 NeonXSZ Feb 22, 2016 $14.9962% (85%)0 .. 20,0000%00:00 (00:00)
34 Skylar & Plux: Adventure On Clover Island May 19, 2017 $14.9962% (85%)0 .. 20,0000%00:00 (00:00)
35 Skyhook May 17, 2016 $4.9962% (85%)0 .. 20,0000%00:00 (00:00)
36 Vintage Year Jan 2, 2015 $2.9962% (85%)0 .. 20,0000%00:00 (00:00)
37 Nongünz May 19, 2017 $6.9962% (85%)100,000 .. 200,0000%00:00 (00:00)
38 Spaceman Sparkles 3 Mar 21, 2016 $4.99N/A (N/A)0 .. 20,0000%00:00 (00:00)
39 Lightblade VR May 31, 2016 $3.9960% (84%)20,000 .. 50,0000%00:00 (00:00)
40 Stargunner Nov 19, 1996 Free60% (84%)0 .. 20,0000%00:00 (00:00)
41 I Am The Hero Jan 16, 2017 $9.9960% (84%)20,000 .. 50,0000%00:00 (00:00)
42 Isbarah Feb 25, 2015 $13.99N/A (N/A)20,000 .. 50,00018.75%05:25 (03:35)
43 Suicide Guy Jul 14, 2017 $4.9960% (84%)0 .. 20,0000%00:00 (00:00)
44 Wicce May 2, 2016 $4.9960% (84%)0 .. 20,0000%00:00 (00:00)
45 Rosenkreuzstilette Feb 2, 2017 $6.9960% (84%)0 .. 20,0000%00:00 (00:00)
46 Nandeyanen!? - The 1st Sûtra Jul 22, 2015 $1.99N/A (N/A)0 .. 20,0000%00:00 (00:00)
47 2 Ninjas 1 Cup Feb 3, 2017 $0.9957% (83%)0 .. 20,0000%00:00 (00:00)
48 Fighties Jul 13, 2015 $4.9957% (83%)0 .. 20,0000%00:00 (00:00)
49 LUMBERMANCER Jun 28, 2016 $2.99N/A (N/A)0 .. 20,0000%00:00 (00:00)
50 Scribble Ships Mar 29, 2017 $3.99N/A (N/A)0 .. 20,0000%00:00 (00:00)
51 Dimensional Dec 14, 2016 $2.49N/A (N/A)0 .. 20,0000%00:00 (00:00)
52 Caladrius Blaze Jan 11, 2017 $24.9952% (81%)0 .. 20,0000%00:00 (00:00)
53 forma.8 Feb 23, 2017 $9.99N/A (N/A)0 .. 20,0000%00:00 (00:00)
54 BULLET SOUL / バレットソウル - 弾魂 - Apr 6, 2017 $14.99N/A (N/A/76%)0 .. 20,0000%00:00 (00:00)
55 Airport Madness: World Edition May 28, 2015 $9.9950% (80%)20,000 .. 50,0003.7%00:03 (00:01)
56 Spaceman Sparkles 2 May 20, 2015 $2.9950% (80%)0 .. 20,0000%00:00 (00:00)
57 Davyria: Heroes of Eternity Mar 10, 2017 $8.99N/A (N/A)0 .. 20,0000%00:00 (00:00)
58 Disney Infinity 3.0: Gold Edition Dec 9, 2016 $29.9948% (79%)0 .. 20,0000%00:00 (00:00)
59 Gnomes Vs. Fairies: Greckel's Quest Jul 1, 2016 $9.9946% (78%)0 .. 20,0000%00:00 (00:00)
60 Quick Draw Jan 10, 2017 $9.99N/A (N/A)0 .. 20,0000%00:00 (00:00)
61 Xenocide Aug 28, 2015 $2.99N/A (N/A)0 .. 20,0000%00:00 (00:00)
62 Vertical Drop Heroes HD Jul 25, 2014 $6.9944% (77%/70%)200,000 .. 500,0000%00:00 (00:00)
63 Zombeer Jan 30, 2015 $4.9942% (76%/32%)0 .. 20,0000%00:00 (00:00)
64 Flinthook Apr 18, 2017 $14.9942% (76%/80%)50,000 .. 100,0000%00:00 (00:00)
65 ABRACA - Imagic Games Mar 31, 2016 $14.99N/A (N/A)0 .. 20,0000%00:00 (00:00)
66 Castle Torgeath: Descent into Darkness Jan 22, 2016 $7.9941% (75%)0 .. 20,00016%06:49 (08:14)
67 [email protected] Feb 9, 2017 $14.9941% (75%/66%)0 .. 20,0000%00:00 (00:00)
68 Putrefaction 2: Void Walker May 29, 2017 $4.9939% (74%)0 .. 20,0000%00:00 (00:00)
69 Kraven Manor Sep 26, 2014 $5.9939% (74%/58%)50,000 .. 100,0000%00:00 (00:00)
70 TankZone Battle Sep 21, 2015 $8.9939% (74%)0 .. 20,0000%00:00 (00:00)
71 Mighty Gunvolt Sep 29, 2015 $4.9939% (74%)20,000 .. 50,0000%00:00 (00:00)
72 Kill to Collect Apr 6, 2016 $9.9937% (73%/57%)0 .. 20,0000%00:00 (00:00)
73 Disney•Pixar Finding Nemo May 11, 2003 $9.9935% (72%)0 .. 20,0000%00:00 (00:00)
74 Caravan Sep 30, 2016 $9.9935% (72%)0 .. 20,0000%00:00 (00:00)
75 EPOCH Jun 5, 2014 $9.99N/A (N/A)0 .. 20,0000%00:00 (00:00)
76 Far Space VR Jun 2, 2017 $1.9935% (72%)20,000 .. 50,0005%01:04 (00:42)
77 Deathtrap Dungeon Jun 25, 1998 $6.9932% (70%)0 .. 20,0000%00:00 (00:00)
78 V ARRR Jun 10, 2016 $9.9932% (70%)0 .. 20,0000%00:00 (00:00)
79 Tank Brawl Apr 20, 2016 $4.99N/A (N/A)0 .. 20,0000%00:00 (00:00)
80 Arctic Adventure Oct 9, 1991 N/AN/A (N/A)0 .. 20,0000%00:00 (00:00)
81 The Girl and the Robot Aug 17, 2016 $9.99N/A (N/A)0 .. 20,0000%00:00 (00:00)
82 Xenus 2. White gold. Nov 30, 2016 $14.9932% (70%)0 .. 20,0000%00:00 (00:00)
83 Westboro Apr 27, 2017 $17.9932% (70%)0 .. 20,0000%00:00 (00:00)
84 Phantaruk Aug 16, 2016 $4.9931% (69%/53%)20,000 .. 50,0001.54%00:30 (00:10)
85 The Next World Mar 7, 2016 $12.9931% (69%)0 .. 20,0000%00:00 (00:00)
86 Planet of Mubu Apr 1, 2017 $5.99N/A (N/A)20,000 .. 50,0000%00:00 (00:00)
87 Wooden Sen'SeY Dec 5, 2013 $9.9929% (68%)20,000 .. 50,0000%00:00 (00:00)
88 Xenon Valkyrie Feb 3, 2017 $9.9929% (68%)0 .. 20,00016.67%05:00 (02:30)
89 BIOS Dec 13, 2016 $14.9926% (66%)0 .. 20,0000%00:00 (00:00)
90 Legends of the Universe - StarCore Jul 25, 2016 $0.51N/A (N/A)0 .. 20,0000%00:00 (00:00)
91 Cavern of Time Feb 10, 2017 $3.99N/A (N/A)0 .. 20,0000%00:00 (00:00)
92 King Lucas Dec 1, 2016 $1.4926% (66%)20,000 .. 50,0000.58%00:19 (00:06)
93 Redux: Dark Matters Dec 12, 2014 $12.99N/A (N/A/61%)0 .. 20,0000%00:00 (00:00)
94 Epigenesis Aug 1, 2014 Free25% (65%)200,000 .. 500,0000.36%04:02 (01:20)
95 JET HERO Feb 16, 2017 $0.69N/A (N/A)0 .. 20,0000%00:00 (00:00)
96 METAGAL May 22, 2016 $3.9925% (65%)0 .. 20,0000%00:00 (00:00)
97 Marble Mountain Apr 5, 2016 $9.99N/A (N/A)0 .. 20,0000%00:00 (00:00)
98 Masked Forces Nov 23, 2016 $0.9924% (64%)0 .. 20,0002.7%00:10 (00:03)
99 Crazy Catman Jun 1, 2017 $0.9924% (64%)20,000 .. 50,0002.08%105:37 (66:45)
100 Bladestar Jan 15, 2016 $9.99N/A (N/A)0 .. 20,0000%00:00 (00:00)
101 Zombie Camp: Last Survivor Apr 17, 2015 $1.99N/A (N/A)0 .. 20,0000%00:00 (00:00)
102 Nightmare on Azathoth Oct 30, 2015 $0.99N/A (N/A)0 .. 20,0000%00:00 (00:00)
103 Predator Simulator May 11, 2015 $2.9923% (63%)20,000 .. 50,0001.82%00:09 (00:03)
104 Alpha Zylon Dec 19, 2007 $4.9921% (62%)20,000 .. 50,0000%00:00 (00:00)
105 Majestic Nights Oct 30, 2014 $4.9921% (62%/32%)0 .. 20,0000%00:00 (00:00)
106 Momento Temporis: Light from the Deep Oct 27, 2016 $4.99N/A (N/A)0 .. 20,0000%00:00 (00:00)
107 Disney Alice in Wonderland Mar 2, 2010 $19.9920% (61%/63%)0 .. 20,0000%00:00 (00:00)
108 Pane In The Glass Aug 8, 2016 $4.99N/A (N/A)0 .. 20,0000%00:00 (00:00)
109 Q*bert: Rebooted Jul 1, 2014 $4.9919% (60%)20,000 .. 50,0000%00:00 (00:00)
110 Yar's Revenge Apr 28, 2011 $9.99N/A (N/A/56%)0 .. 20,0000%00:00 (00:00)
111 I, Gladiator Apr 7, 2015 $7.9919% (60%)0 .. 20,0000%00:00 (00:00)
112 Shadowcrypt Jul 7, 2014 $4.9917% (58%)0 .. 20,0000%00:00 (00:00)
113 The Ruins: VR Escape the Room Apr 13, 2017 $5.99N/A (N/A)0 .. 20,0000%00:00 (00:00)
114 Silver Bullet: Prometheus Apr 8, 2016 $4.9916% (57%)0 .. 20,0009.09%02:45 (00:55)
115 The Curse of Nordic Cove Apr 23, 2015 $0.99N/A (N/A)0 .. 20,0000%00:00 (00:00)
116 Fossil Echo Jul 8, 2016 $2.4915% (55%/61%)0 .. 20,0000%00:00 (00:00)
117 Redneck Rampage Jan 4, 2017 $3.39N/A (N/A)0 .. 20,0000%00:00 (00:00)
118 Princess Kaguya: Legend of the Moon Warrior Aug 4, 2015 $10.99N/A (N/A)0 .. 20,0006.82%01:58 (01:57)
119 QUALIA 3: Multi Agent Apr 18, 2014 $4.99N/A (N/A)0 .. 20,0000%00:00 (00:00)
120 Mobile Light Force (aka Gunbird) Jul 17, 2015 $4.99N/A (N/A)0 .. 20,0000%00:00 (00:00)
121 The East New World Apr 26, 2016 $4.99N/A (N/A)0 .. 20,0000%00:00 (00:00)
122 Police Quest: SWAT Dec 15, 2016 $5.99N/A (N/A)0 .. 20,0000%00:00 (00:00)
123 Scooby Doo! & Looney Tunes Cartoon Universe: Adventure Jul 16, 2014 $19.99N/A (N/A)0 .. 20,0000%00:00 (00:00)
124 Project Root May 1, 2014 $9.9911% (49%)20,000 .. 50,0000%00:00 (00:00)
125 Plancon: Space Conflict Aug 8, 2016 $6.9910% (48%)20,000 .. 50,0002.2%03:40 (02:26)
126 Infinium Strike Jul 14, 2016 $9.999% (47%)0 .. 20,0000%00:00 (00:00)
127 Super Dungeon Bros Nov 1, 2016 $4.99N/A (N/A)0 .. 20,0000%00:00 (00:00)
128 Fabula Mortis Oct 27, 2014 $7.999% (46%)0 .. 20,0000%00:00 (00:00)
129 Red Johnson's Chronicles - 1+2 - Steam Special Edition Sep 5, 2014 $9.99N/A (N/A)0 .. 20,0000%00:00 (00:00)
130 Dusk 12 Aug 28, 2009 $3.998% (44%)50,000 .. 100,0000%00:00 (00:00)
131 Greed: Black Border Jan 13, 2010 $4.998% (44%)100,000 .. 200,0000.85%00:02 (00:00)
132 iStorm Apr 16, 2017 Free8% (43%)0 .. 20,0000%00:00 (00:00)
133 Blinding Dark Aug 12, 2014 $9.997% (42%)20,000 .. 50,0000%00:00 (00:00)
134 Polterheist Feb 22, 2017 $4.996% (40%)0 .. 20,0000%00:00 (00:00)
135 Crouching Pony Hidden Dragon Jul 11, 2014 $9.996% (40%)20,000 .. 50,0000%00:00 (00:00)
136 Beyond Space Remastered Edition Jun 16, 2014 $4.996% (39%)20,000 .. 50,0000%00:00 (00:00)
137 The Slingshot VR Jul 6, 2016 $1.99N/A (N/A)0 .. 20,0000%00:00 (00:00)
138 Disney Fairies: Tinker Bell's Adventure Oct 6, 2014 $19.99N/A (N/A)0 .. 20,0000%00:00 (00:00)
139 CDF Ghostship Jun 26, 2015 $9.994% (33%)0 .. 20,0006.67%03:56 (01:18)
140 Xenophage: Alien Bloodsport Dec 29, 1995 N/AN/A (N/A)20,000 .. 50,0000%00:00 (00:00)
141 Hush Jul 29, 2015 $9.99N/A (N/A)0 .. 20,0000%00:00 (00:00)
142 NightZ Feb 14, 2017 $0.993% (28%)20,000 .. 50,0000%00:00 (00:00)
143 Masterspace Jun 15, 2015 $7.993% (27%)0 .. 20,0000%00:00 (00:00)
144 Alone in the Dark: Illumination Jun 11, 2015 $19.992% (24%)0 .. 20,0000%00:00 (00:00)
145 Xmas Zombie Rampage Dec 21, 2016 $9.99N/A (N/A)0 .. 20,0000%00:00 (00:00)
146 Battle For The Sun Jul 22, 2015 $4.991% (15%)0 .. 20,0000%00:00 (00:00)
147 Iron Soul Feb 26, 2014 $4.991% (10%)0 .. 20,0000%00:00 (00:00)

Owners of this game also own:

Access restricted.

This feature is only available to users with special access rights. Sorry.

If you want to proceed, you need to register or log in first and then back Steam Spy on Patreon. Look for Indie or Pro pledge.

Don't forget to use the same email as on Steam Spy!

Playtime distribution:

Access restricted.

This feature is only available to users with special access rights. Sorry.

If you want to proceed, you need to register or log in first and then back Steam Spy on Patreon. Look for Indie or Pro pledge.

Don't forget to use the same email as on Steam Spy!

Playtime (2 weeks):

Access restricted.

This feature is only available to users with special access rights. Sorry.

If you want to proceed, you need to register or log in first and then back Steam Spy on Patreon. Look for Indie or Pro pledge.

Don't forget to use the same email as on Steam Spy!

User reviews:

Login required.

Please register or log in to see this information.